createdAt,value
2022-12-08T00:01:14.012Z,19.35
2022-12-08T00:03:41.291Z,18.27
2022-12-08T00:06:41.229Z,20.42
2022-12-08T00:09:22.515Z,16.95
2022-12-08T00:11:57.531Z,16.08
2022-12-08T00:14:30.078Z,12.30
2022-12-08T00:16:57.547Z,13.20
2022-12-08T00:19:24.881Z,11.85
2022-12-08T00:21:52.320Z,12.35
2022-12-08T00:24:19.462Z,23.90
2022-12-08T00:26:46.869Z,12.52
2022-12-08T00:29:17.321Z,15.85
2022-12-08T00:31:44.713Z,12.88
2022-12-08T00:34:15.548Z,12.48
2022-12-08T00:36:42.780Z,12.25
2022-12-08T00:39:10.759Z,12.25
2022-12-08T00:41:55.897Z,12.82
2022-12-08T00:44:22.557Z,13.98
2022-12-08T00:46:49.493Z,12.80
2022-12-08T00:49:16.944Z,14.52
2022-12-08T00:51:44.048Z,13.30
2022-12-08T00:54:11.726Z,12.95
2022-12-08T00:56:38.512Z,13.52
2022-12-08T00:59:07.033Z,12.82
2022-12-08T01:01:34.869Z,14.68
2022-12-08T01:04:10.225Z,14.25
2022-12-08T01:09:05.251Z,14.30
2022-12-08T01:11:32.642Z,15.02
2022-12-08T01:13:59.380Z,15.93
2022-12-08T01:16:29.235Z,14.57
2022-12-08T01:18:57.637Z,14.98
2022-12-08T01:21:24.406Z,17.17
2022-12-08T01:23:51.250Z,15.82
2022-12-08T01:26:19.181Z,15.32
2022-12-08T01:28:46.910Z,16.80
2022-12-08T01:31:16.874Z,15.45
2022-12-08T01:33:43.950Z,15.43
2022-12-08T01:36:23.519Z,16.42
2022-12-08T01:38:51.101Z,15.90
2022-12-08T01:41:21.123Z,15.05
2022-12-08T01:44:02.587Z,16.05
2022-12-08T01:46:31.888Z,15.00
2022-12-08T01:49:23.380Z,17.13
2022-12-08T01:51:55.588Z,16.70
2022-12-08T01:54:24.106Z,16.63
2022-12-08T01:57:08.490Z,16.48
2022-12-08T01:59:40.347Z,15.48
2022-12-08T02:02:08.610Z,18.85
2022-12-08T02:04:35.405Z,17.52
2022-12-08T02:07:07.823Z,19.17
2022-12-08T02:09:36.008Z,16.40
2022-12-08T02:12:02.726Z,16.77
2022-12-08T02:14:29.487Z,18.92
2022-12-08T02:17:14.319Z,18.80
2022-12-08T02:19:55.075Z,17.60
2022-12-08T02:22:59.380Z,15.85
2022-12-08T02:25:55.045Z,16.90
2022-12-08T02:29:00.267Z,20.95
2022-12-08T02:32:19.965Z,18.02
2022-12-08T02:35:11.362Z,19.55
2022-12-08T02:37:55.276Z,18.25
2022-12-08T02:40:47.536Z,19.73
2022-12-08T02:43:23.019Z,17.85
2022-12-08T02:45:55.539Z,19.10
2022-12-08T02:48:22.307Z,18.60
2022-12-08T02:50:48.934Z,16.67
2022-12-08T02:56:05.970Z,16.40
2022-12-08T02:59:01.589Z,18.08
2022-12-08T03:01:34.369Z,15.13
2022-12-08T03:04:36.147Z,17.75
2022-12-08T03:07:05.782Z,17.73
2022-12-08T03:10:05.786Z,15.60
2022-12-08T03:12:56.829Z,18.05
2022-12-08T03:15:23.709Z,16.33
2022-12-08T03:17:57.390Z,15.88
2022-12-08T03:20:26.036Z,19.17
2022-12-08T03:22:56.245Z,20.05
2022-12-08T03:25:28.340Z,17.75
2022-12-08T03:27:55.014Z,16.58
2022-12-08T03:30:21.733Z,20.33
2022-12-08T03:33:23.338Z,17.55
2022-12-08T03:35:51.032Z,15.70
2022-12-08T03:38:17.965Z,18.65
2022-12-08T03:41:05.457Z,17.08
2022-12-08T03:43:32.195Z,16.58
2022-12-08T03:45:58.932Z,17.75
2022-12-08T03:48:25.629Z,16.98
2022-12-08T03:50:52.315Z,16.55
2022-12-08T03:53:19.033Z,17.05
2022-12-08T03:55:45.768Z,17.98
2022-12-08T03:58:12.368Z,19.15
2022-12-08T04:00:38.958Z,18.77
2022-12-08T04:03:06.507Z,17.50
2022-12-08T04:05:33.277Z,17.45
2022-12-08T04:08:01.240Z,18.83
2022-12-08T04:10:28.178Z,18.13
2022-12-08T04:12:54.819Z,21.40
2022-12-08T04:15:21.534Z,18.63
2022-12-08T04:17:48.156Z,19.92
2022-12-08T04:20:14.869Z,21.58
2022-12-08T04:22:41.516Z,19.77
2022-12-08T04:25:08.616Z,20.83
2022-12-08T04:27:35.445Z,22.58
2022-12-08T04:30:02.647Z,19.50
2022-12-08T04:32:29.476Z,23.30
2022-12-08T04:34:56.279Z,36.58
2022-12-08T04:37:22.956Z,19.83
2022-12-08T04:39:49.667Z,17.92
2022-12-08T04:42:16.334Z,23.58
2022-12-08T04:44:43.057Z,19.10
2022-12-08T04:47:09.722Z,17.60
2022-12-08T04:49:36.449Z,21.00
2022-12-08T04:52:03.491Z,27.05
2022-12-08T04:54:30.193Z,23.50
2022-12-08T04:56:56.971Z,19.80
2022-12-08T04:59:23.691Z,19.20
2022-12-08T05:01:50.637Z,19.15
2022-12-08T05:04:17.463Z,19.85
2022-12-08T05:06:44.116Z,29.10
2022-12-08T05:09:11.111Z,20.80
2022-12-08T05:11:48.408Z,21.73
2022-12-08T05:14:17.064Z,28.33
2022-12-08T05:16:46.333Z,43.85
2022-12-08T05:19:14.045Z,49.88
2022-12-08T05:21:40.758Z,32.33
2022-12-08T05:24:07.559Z,39.90
2022-12-08T05:26:34.259Z,63.78
2022-12-08T05:29:01.004Z,54.72
2022-12-08T05:31:27.800Z,56.65
2022-12-08T05:33:58.391Z,37.25
2022-12-08T05:36:27.722Z,27.55
2022-12-08T05:38:56.956Z,59.00
2022-12-08T05:41:23.968Z,58.83
2022-12-08T05:43:50.853Z,53.80
2022-12-08T05:46:28.126Z,63.15
2022-12-08T05:48:54.868Z,63.22
2022-12-08T05:51:23.986Z,56.58
2022-12-08T05:53:51.505Z,53.88
2022-12-08T05:56:18.995Z,59.42
2022-12-08T05:58:46.266Z,83.20
2022-12-08T06:01:23.431Z,49.90
2022-12-08T06:03:50.581Z,88.90
2022-12-08T06:06:17.648Z,89.32
2022-12-08T06:08:44.448Z,45.50
2022-12-08T06:11:18.312Z,32.05
2022-12-08T06:13:45.334Z,55.92
2022-12-08T06:16:12.082Z,35.75
2022-12-08T06:18:38.883Z,82.82
2022-12-08T06:21:11.885Z,65.18
2022-12-08T06:23:39.037Z,76.60
2022-12-08T06:26:13.578Z,62.33
2022-12-08T06:28:41.402Z,41.33
2022-12-08T06:31:16.938Z,42.15
2022-12-08T06:33:43.888Z,36.20
2022-12-08T06:36:12.889Z,34.90
2022-12-08T06:38:43.271Z,36.58
2022-12-08T06:41:11.068Z,71.50
2022-12-08T06:43:37.939Z,52.55
2022-12-08T06:46:06.488Z,55.72
2022-12-08T06:48:33.489Z,33.97
2022-12-08T06:51:11.412Z,68.40
2022-12-08T07:05:08.403Z,61.85
2022-12-08T07:07:35.019Z,60.13
2022-12-08T07:10:01.881Z,49.47
2022-12-08T07:12:28.783Z,58.35
2022-12-08T07:14:55.469Z,33.22
2022-12-08T07:17:22.121Z,41.08
2022-12-08T07:19:48.770Z,44.30
2022-12-08T07:22:15.443Z,32.80
2022-12-08T07:24:42.110Z,27.38
2022-12-08T07:27:08.853Z,30.88
2022-12-08T07:29:35.490Z,24.00
2022-12-08T07:32:02.171Z,22.58
2022-12-08T07:34:28.876Z,28.55
2022-12-08T07:36:55.515Z,21.38
2022-12-08T07:39:22.142Z,31.98
2022-12-08T07:41:48.764Z,33.92
2022-12-08T07:44:15.521Z,36.08
2022-12-08T07:46:42.280Z,27.98
2022-12-08T07:49:09.062Z,36.17
2022-12-08T07:51:35.858Z,38.78
2022-12-08T07:54:02.581Z,20.98
2022-12-08T07:56:29.298Z,35.47
2022-12-08T07:58:55.987Z,43.53
2022-12-08T08:01:26.921Z,22.42
2022-12-08T08:03:55.347Z,52.13
2022-12-08T08:06:22.161Z,52.40
2022-12-08T08:08:48.898Z,53.63
2022-12-08T08:11:20.893Z,70.85
2022-12-08T08:13:48.786Z,27.23
2022-12-08T08:16:15.563Z,43.92
2022-12-08T08:18:42.406Z,55.90
2022-12-08T08:21:43.106Z,58.70
2022-12-08T08:23:55.961Z,40.15
2022-12-08T08:26:22.675Z,43.03
2022-12-08T08:28:50.186Z,38.00
2022-12-08T08:31:16.981Z,34.75
2022-12-08T08:33:43.682Z,24.88
2022-12-08T08:36:11.031Z,26.23
2022-12-08T08:38:40.430Z,43.67
2022-12-08T08:41:09.359Z,49.78
2022-12-08T08:43:38.530Z,58.78
2022-12-08T08:46:06.405Z,47.20
2022-12-08T08:48:33.661Z,23.65
2022-12-08T08:51:07.893Z,45.33
2022-12-08T08:53:34.592Z,43.95
2022-12-08T08:56:02.788Z,25.60
2022-12-08T08:58:29.754Z,23.52
2022-12-08T09:00:56.570Z,34.70
2022-12-08T09:03:23.444Z,38.90
2022-12-08T09:05:50.603Z,25.67
2022-12-08T09:08:17.819Z,23.25
2022-12-08T09:10:44.605Z,37.95
2022-12-08T09:13:11.208Z,40.30
2022-12-08T09:15:37.886Z,29.33
2022-12-08T09:18:06.766Z,34.97
2022-12-08T09:20:34.600Z,27.55
2022-12-08T09:23:01.449Z,35.55
2022-12-08T09:25:28.774Z,38.55
2022-12-08T09:27:55.419Z,29.35
2022-12-08T09:30:22.267Z,25.40
2022-12-08T09:32:48.914Z,32.35
2022-12-08T09:35:15.574Z,37.70
2022-12-08T09:37:42.364Z,30.33
2022-12-08T09:40:12.003Z,39.92
2022-12-08T09:42:59.905Z,26.75
2022-12-08T09:45:30.353Z,39.25
2022-12-08T09:48:05.660Z,24.58
2022-12-08T09:53:12.652Z,34.63
2022-12-08T09:55:43.410Z,43.35
2022-12-08T09:58:18.105Z,30.75
2022-12-08T10:00:44.861Z,35.25
2022-12-08T10:03:16.948Z,21.85
2022-12-08T10:05:50.193Z,31.00
2022-12-08T10:08:21.625Z,20.98
2022-12-08T10:11:48.096Z,22.95
2022-12-08T10:14:14.776Z,30.75
2022-12-08T10:16:42.868Z,34.22
2022-12-08T10:19:24.383Z,34.53
2022-12-08T10:21:51.516Z,27.90
2022-12-08T10:24:34.688Z,30.80
2022-12-08T10:27:02.642Z,31.20
2022-12-08T10:29:29.400Z,37.78
2022-12-08T10:32:00.062Z,26.10
2022-12-08T10:34:26.877Z,29.42
2022-12-08T10:36:56.307Z,31.50
2022-12-08T10:39:40.848Z,23.15
2022-12-08T10:42:19.972Z,27.52
2022-12-08T10:44:59.117Z,28.05
2022-12-08T10:47:27.297Z,29.77
2022-12-08T10:50:20.297Z,31.10
2022-12-08T10:52:55.842Z,24.80
2022-12-08T10:55:23.627Z,49.25
2022-12-08T10:57:50.645Z,22.50
2022-12-08T11:00:24.360Z,28.30
2022-12-08T11:02:55.463Z,25.23
2022-12-08T11:05:24.000Z,26.13
2022-12-08T11:07:53.051Z,22.80
2022-12-08T11:10:21.461Z,34.88
2022-12-08T11:12:49.532Z,33.38
2022-12-08T11:15:18.257Z,24.60
2022-12-08T11:17:50.108Z,20.98
2022-12-08T11:20:23.530Z,23.20
2022-12-08T11:22:55.245Z,23.70
2022-12-08T11:25:27.124Z,28.65
2022-12-08T11:27:58.785Z,32.72
2022-12-08T11:30:29.455Z,21.20
2022-12-08T11:33:03.792Z,24.67
2022-12-08T11:35:34.177Z,28.10
2022-12-08T11:38:22.823Z,26.02
2022-12-08T11:41:17.065Z,26.35
2022-12-08T11:43:52.117Z,22.10
2022-12-08T11:46:25.443Z,16.88
2022-12-08T11:49:06.010Z,24.98
2022-12-08T11:51:53.767Z,27.15
2022-12-08T11:54:30.982Z,22.33
2022-12-08T11:57:13.047Z,40.55
2022-12-08T11:59:49.742Z,26.02
2022-12-08T12:02:25.780Z,27.23
2022-12-08T12:04:58.402Z,28.48
2022-12-08T12:07:44.033Z,37.38
2022-12-08T12:10:13.340Z,26.08
2022-12-08T12:12:49.893Z,34.35
2022-12-08T12:15:22.631Z,24.52
2022-12-08T12:18:04.540Z,23.95
2022-12-08T12:20:35.492Z,26.77
2022-12-08T12:23:08.615Z,38.90
2022-12-08T12:25:36.185Z,25.23
2022-12-08T12:28:06.282Z,27.00
2022-12-08T12:30:52.542Z,28.73
2022-12-08T12:33:19.916Z,31.88
2022-12-08T12:35:48.311Z,22.70
2022-12-08T12:38:36.514Z,38.53
2022-12-08T12:41:04.470Z,30.88
2022-12-08T12:43:34.195Z,28.45
2022-12-08T12:46:36.238Z,26.58
2022-12-08T12:49:39.857Z,36.88
2022-12-08T12:52:15.620Z,40.08
2022-12-08T12:54:43.413Z,37.47
2022-12-08T12:57:12.988Z,34.58
2022-12-08T13:00:05.696Z,24.98
2022-12-08T13:02:53.693Z,22.20
2022-12-08T13:05:30.368Z,20.35
2022-12-08T13:08:07.144Z,18.85
2022-12-08T13:10:41.291Z,24.15
2022-12-08T13:13:10.934Z,20.90
2022-12-08T13:15:48.953Z,27.27
2022-12-08T13:18:38.942Z,22.73
2022-12-08T13:21:08.811Z,31.33
2022-12-08T13:23:38.491Z,30.30
2022-12-08T13:26:14.165Z,21.65
2022-12-08T13:28:59.742Z,26.45
2022-12-08T13:34:17.780Z,22.42
2022-12-08T13:37:12.459Z,21.05
2022-12-08T13:39:39.110Z,29.88
2022-12-08T13:42:29.653Z,20.77
2022-12-08T13:52:59.929Z,42.15
2022-12-08T13:57:02.737Z,29.88
2022-12-08T13:59:20.132Z,31.77
2022-12-08T14:01:49.162Z,29.08
2022-12-08T14:07:13.203Z,28.00
2022-12-08T14:09:40.702Z,31.60
2022-12-08T14:12:22.543Z,27.02
2022-12-08T14:15:07.786Z,31.45
2022-12-08T14:17:34.658Z,26.63
2022-12-08T14:20:04.786Z,28.50
2022-12-08T14:22:36.163Z,29.90
2022-12-08T14:25:03.867Z,33.75
2022-12-08T14:27:34.567Z,33.88
2022-12-08T14:30:25.635Z,25.38
2022-12-08T14:32:58.426Z,31.52
2022-12-08T14:35:32.247Z,40.40
2022-12-08T14:38:01.555Z,32.88
2022-12-08T14:40:35.051Z,33.13
2022-12-08T14:43:07.661Z,32.70
2022-12-08T14:45:41.076Z,35.70
2022-12-08T14:48:33.724Z,29.50
2022-12-08T14:51:03.465Z,31.45
2022-12-08T14:53:40.257Z,32.00
2022-12-08T14:56:09.450Z,55.30
2022-12-08T14:58:36.083Z,27.20
2022-12-08T15:01:05.297Z,41.47
2022-12-08T15:03:32.620Z,40.78
2022-12-08T15:06:07.261Z,38.00
2022-12-08T15:08:35.177Z,53.45
2022-12-08T15:11:23.986Z,29.77
2022-12-08T15:13:52.179Z,35.28
2022-12-08T15:16:38.119Z,45.80
2022-12-08T15:19:17.029Z,46.47
2022-12-08T15:21:44.697Z,35.65
2022-12-08T15:24:12.645Z,36.88
2022-12-08T15:26:45.019Z,37.15
2022-12-08T15:29:20.990Z,28.38
2022-12-08T15:31:47.913Z,48.65
2022-12-08T15:34:14.556Z,44.95
2022-12-08T15:36:43.040Z,42.80
2022-12-08T15:39:25.949Z,38.67
2022-12-08T15:41:52.588Z,42.92
2022-12-08T15:44:19.249Z,50.20
2022-12-08T15:46:46.022Z,41.58
2022-12-08T15:49:23.568Z,39.30
2022-12-08T15:51:53.142Z,42.95
2022-12-08T15:54:23.233Z,52.80
2022-12-08T15:57:18.110Z,36.92
2022-12-08T15:59:39.073Z,51.50
2022-12-08T16:02:05.771Z,35.88
2022-12-08T16:07:25.334Z,43.13
2022-12-08T16:09:52.494Z,34.58
2022-12-08T16:13:27.242Z,35.90
2022-12-08T16:18:16.975Z,47.90
2022-12-08T16:21:07.504Z,24.80
2022-12-08T16:23:43.084Z,38.30
2022-12-08T16:27:01.074Z,35.97
2022-12-08T16:29:07.248Z,24.85
2022-12-08T16:31:34.041Z,25.08
2022-12-08T16:34:00.922Z,23.90
2022-12-08T16:36:27.560Z,38.35
2022-12-08T16:38:54.231Z,28.15
2022-12-08T16:41:39.699Z,21.80
2022-12-08T16:44:06.646Z,28.83
2022-12-08T16:46:33.756Z,24.25
2022-12-08T16:49:00.474Z,22.13
2022-12-08T16:51:27.694Z,17.15
2022-12-08T16:53:55.741Z,23.92
2022-12-08T16:56:28.807Z,18.25
2022-12-08T16:58:58.839Z,17.85
2022-12-08T17:01:25.619Z,17.63
2022-12-08T17:04:22.571Z,17.45
2022-12-08T17:06:39.285Z,38.47
2022-12-08T17:09:05.975Z,32.78
2022-12-08T17:11:37.487Z,23.20
2022-12-08T17:14:09.262Z,40.45
2022-12-08T17:16:36.077Z,37.75
2022-12-08T17:19:02.877Z,31.45
2022-12-08T17:21:29.791Z,26.10
2022-12-08T17:23:56.553Z,21.20
2022-12-08T17:26:23.211Z,24.17
2022-12-08T17:29:05.554Z,23.38
2022-12-08T17:31:33.305Z,39.65
2022-12-08T17:34:04.816Z,26.67
2022-12-08T17:36:31.864Z,38.47
2022-12-08T17:39:02.001Z,30.75
2022-12-08T17:41:29.317Z,31.08
2022-12-08T17:43:56.182Z,48.47
2022-12-08T17:46:23.460Z,20.98
2022-12-08T17:48:50.200Z,22.85
2022-12-08T17:51:16.870Z,24.98
2022-12-08T17:53:43.779Z,26.05
2022-12-08T17:56:19.041Z,16.40
2022-12-08T17:58:51.089Z,37.97
2022-12-08T18:01:21.154Z,24.65
2022-12-08T18:03:47.786Z,43.60
2022-12-08T18:06:14.496Z,19.67
2022-12-08T18:08:41.208Z,23.73
2022-12-08T18:11:16.629Z,18.20
2022-12-08T18:16:09.919Z,18.60
2022-12-08T18:18:36.769Z,19.83
2022-12-08T18:21:03.935Z,24.08
2022-12-08T18:23:30.701Z,26.15
2022-12-08T18:25:57.398Z,25.92
2022-12-08T18:28:24.358Z,21.00
2022-12-08T18:30:51.265Z,25.70
2022-12-08T18:33:18.071Z,19.17
2022-12-08T18:35:44.751Z,25.48
2022-12-08T18:38:11.361Z,23.58
2022-12-08T18:40:38.182Z,24.58
2022-12-08T18:43:04.857Z,18.45
2022-12-08T18:45:31.574Z,24.02
2022-12-08T18:47:58.183Z,24.95
2022-12-08T18:50:24.944Z,21.77
2022-12-08T18:52:51.622Z,24.05
2022-12-08T18:55:18.401Z,31.55
2022-12-08T18:57:45.499Z,30.38
2022-12-08T19:00:15.228Z,25.38
2022-12-08T19:02:42.271Z,37.60
2022-12-08T19:05:11.003Z,25.75
2022-12-08T19:07:38.146Z,25.02
2022-12-08T19:10:06.763Z,29.60
2022-12-08T19:12:33.695Z,34.95
2022-12-08T19:15:00.309Z,27.90
2022-12-08T19:17:26.960Z,27.05
2022-12-08T19:19:53.612Z,22.67
2022-12-08T19:22:20.253Z,19.17
2022-12-08T19:24:47.192Z,37.40
2022-12-08T19:27:13.875Z,21.77
2022-12-08T19:29:40.545Z,24.50
2022-12-08T19:32:07.211Z,29.67
2022-12-08T19:34:33.933Z,20.00
2022-12-08T19:37:00.522Z,39.28
2022-12-08T19:39:45.995Z,37.28
2022-12-08T19:42:36.221Z,28.63
2022-12-08T19:45:21.954Z,57.42
2022-12-08T19:50:34.811Z,30.33
2022-12-08T19:53:02.504Z,53.35
2022-12-08T19:55:29.532Z,45.75
2022-12-08T19:57:57.205Z,37.38
2022-12-08T20:00:24.285Z,28.60
2022-12-08T20:02:51.328Z,71.55
2022-12-08T20:05:18.121Z,32.60
2022-12-08T20:07:44.916Z,28.42
2022-12-08T20:10:18.129Z,38.70
2022-12-08T20:12:44.791Z,33.65
2022-12-08T20:15:11.688Z,25.65
2022-12-08T20:17:38.949Z,20.48
2022-12-08T20:20:07.801Z,21.40
2022-12-08T20:22:35.131Z,28.42
2022-12-08T20:25:02.393Z,29.27
2022-12-08T20:27:29.270Z,24.80
2022-12-08T20:29:56.004Z,20.95
2022-12-08T20:32:22.770Z,27.92
2022-12-08T20:34:49.553Z,23.45
2022-12-08T20:37:16.331Z,22.95
2022-12-08T20:39:42.988Z,24.40
2022-12-08T20:42:13.204Z,33.75
2022-12-08T20:44:43.390Z,35.88
2022-12-08T20:47:11.513Z,25.88
2022-12-08T20:49:38.683Z,22.80
2022-12-08T20:52:05.848Z,25.05
2022-12-08T20:54:32.807Z,32.50
2022-12-08T20:56:59.660Z,17.00
2022-12-08T20:59:26.977Z,28.92
2022-12-08T21:01:54.477Z,27.23
2022-12-08T21:04:22.250Z,19.98
2022-12-08T21:06:49.976Z,25.20
2022-12-08T21:09:16.762Z,26.00
2022-12-08T21:11:43.911Z,29.10
2022-12-08T21:14:10.814Z,39.33
2022-12-08T21:16:38.008Z,53.00
2022-12-08T21:19:06.147Z,50.53
2022-12-08T21:21:33.054Z,40.72
2022-12-08T21:24:00.038Z,44.33
2022-12-08T21:26:27.004Z,40.17
2022-12-08T21:28:54.997Z,47.60
2022-12-08T21:31:22.261Z,25.33
2022-12-08T21:33:49.190Z,28.55
2022-12-08T21:36:19.397Z,27.80
2022-12-08T21:38:47.276Z,32.60
2022-12-08T21:41:16.851Z,27.02
2022-12-08T21:43:43.745Z,29.48
2022-12-08T21:46:19.195Z,25.95
2022-12-08T21:48:46.580Z,22.55
2022-12-08T21:51:13.356Z,24.10
2022-12-08T21:53:40.174Z,29.08
2022-12-08T21:56:10.401Z,23.20
2022-12-08T21:58:37.302Z,24.73
2022-12-08T22:01:08.343Z,29.55
2022-12-08T22:03:35.747Z,67.95
2022-12-08T22:06:06.758Z,38.58
2022-12-08T22:08:33.541Z,22.67
2022-12-08T22:11:00.581Z,42.80
2022-12-08T22:13:27.369Z,23.13
2022-12-08T22:15:58.059Z,42.15
2022-12-08T22:18:25.153Z,47.75
2022-12-08T22:20:52.351Z,33.58
2022-12-08T22:23:19.450Z,44.95
2022-12-08T22:25:46.301Z,18.48
2022-12-08T22:28:13.002Z,23.92
2022-12-08T22:30:39.777Z,26.80
2022-12-08T22:33:06.682Z,56.38
2022-12-08T22:35:33.405Z,19.17
2022-12-08T22:38:00.108Z,26.27
2022-12-08T22:40:26.790Z,17.27
2022-12-08T22:42:53.429Z,19.05
2022-12-08T22:45:20.092Z,18.77
2022-12-08T22:47:46.763Z,20.27
2022-12-08T22:50:13.759Z,15.18
2022-12-08T22:52:40.401Z,17.23
2022-12-08T22:55:07.715Z,14.60
2022-12-08T22:57:34.362Z,17.15
2022-12-08T23:00:01.011Z,16.40
2022-12-08T23:02:27.812Z,16.00
2022-12-08T23:04:57.919Z,13.98
2022-12-08T23:07:24.768Z,15.15
2022-12-08T23:09:52.400Z,13.30
2022-12-08T23:12:19.141Z,13.63
2022-12-08T23:14:46.066Z,14.25
2022-12-08T23:17:13.187Z,12.57
2022-12-08T23:19:40.386Z,14.63
2022-12-08T23:22:07.506Z,14.50
2022-12-08T23:24:34.413Z,12.10
2022-12-08T23:27:01.181Z,13.18
2022-12-08T23:29:27.801Z,12.35
2022-12-08T23:31:54.710Z,9.90
2022-12-08T23:34:21.468Z,10.35
2022-12-08T23:36:48.140Z,10.35
2022-12-08T23:39:15.233Z,12.82
2022-12-08T23:41:41.950Z,11.73
2022-12-08T23:44:09.304Z,10.32
2022-12-08T23:46:36.200Z,12.68
2022-12-08T23:49:03.036Z,12.93
2022-12-08T23:51:30.133Z,11.27
2022-12-08T23:53:57.125Z,14.30
2022-12-08T23:56:29.863Z,16.80
2022-12-08T23:58:57.115Z,11.95
